Terminal Aerodrome Forecast
Issued by NWS Huntsville, AL

Home | Current Version | Previous Version | Text Only | Print | Product List | Glossary On
Versions: 1 2 3 4 5 6 7 8 9 10 11 12 13 14 15 16 17
000
FTUS44 KHUN 311120
TAFMSL
TAF
KMSL 311120Z 3112/0112 VRB03KT P6SM BKN050
     FM311500 34005KT P6SM BKN050
     FM311700 33015G25KT P6SM VCSH BKN040
     FM312100 33015G25KT P6SM BKN050
     FM010100 32010KT P6SM SCT050=

USA.gov is the U.S. government's official web portal to all federal, state and local government web resources and services.